PRCLP SBGR-SBDN
Flight info
| Callsign | PRCLP |
|---|---|
| Flight time | N/A |
| Altitude | FL150 |
| Route | SBGR SCB SBDN |
| Aircraft | PA32/L-S/N |
Departure
| Time | 2026-05-08 04:39 |
|---|---|
| Airport | São Paulo/Guarulhos–Governor André Franco Montoro International Airport (SBGR) |
Arrival
| Time | N/A |
|---|---|
| Airport | Presidente Prudente Airport (SBDN) |
| Time | Latitude | Longitude | Altitude | Speed | Heading |
|---|---|---|---|---|---|
| 2026-05-08 04:24 | -23.43750 | -46.47200 | 2463 ft | 0 kts | 78° |
| 2026-05-08 04:28 | -23.43750 | -46.47199 | 2463 ft | 0 kts | 78° |
| 2026-05-08 04:30 | -23.43750 | -46.47198 | 2463 ft | 0 kts | 78° |
| 2026-05-08 04:31 | -23.43744 | -46.47185 | 2463 ft | 2 kts | 17° |
| 2026-05-08 04:31 | -23.43727 | -46.47188 | 2463 ft | 3 kts | 346° |
| 2026-05-08 04:31 | -23.43705 | -46.47193 | 2463 ft | 4 kts | 2° |
| 2026-05-08 04:32 | -23.43678 | -46.47182 | 2463 ft | 5 kts | 26° |
| 2026-05-08 04:32 | -23.43656 | -46.47155 | 2463 ft | 5 kts | 67° |
| 2026-05-08 04:32 | -23.43643 | -46.47112 | 2463 ft | 7 kts | 71° |
| 2026-05-08 04:32 | -23.43628 | -46.47058 | 2463 ft | 8 kts | 75° |
| 2026-05-08 04:33 | -23.43614 | -46.47005 | 2463 ft | 7 kts | 73° |
| 2026-05-08 04:33 | -23.43599 | -46.46969 | 2463 ft | 4 kts | 42° |
| 2026-05-08 04:33 | -23.43570 | -46.46964 | 2463 ft | 5 kts | 344° |
| 2026-05-08 04:33 | -23.43533 | -46.46976 | 2463 ft | 6 kts | 343° |
| 2026-05-08 04:34 | -23.43491 | -46.46990 | 2463 ft | 6 kts | 343° |
| 2026-05-08 04:34 | -23.43454 | -46.46997 | 2463 ft | 6 kts | 10° |
| 2026-05-08 04:34 | -23.43424 | -46.46966 | 2463 ft | 7 kts | 70° |
| 2026-05-08 04:34 | -23.43409 | -46.46913 | 2463 ft | 8 kts | 72° |
| 2026-05-08 04:35 | -23.43391 | -46.46854 | 2463 ft | 9 kts | 72° |
| 2026-05-08 04:35 | -23.43372 | -46.46787 | 2463 ft | 10 kts | 72° |
| 2026-05-08 04:35 | -23.43351 | -46.46716 | 2463 ft | 10 kts | 72° |
| 2026-05-08 04:35 | -23.43331 | -46.46640 | 2463 ft | 11 kts | 75° |
| 2026-05-08 04:36 | -23.43311 | -46.46561 | 2463 ft | 11 kts | 75° |
| 2026-05-08 04:36 | -23.43292 | -46.46484 | 2463 ft | 10 kts | 75° |
| 2026-05-08 04:36 | -23.43272 | -46.46408 | 2463 ft | 10 kts | 75° |
| 2026-05-08 04:36 | -23.43252 | -46.46341 | 2463 ft | 8 kts | 62° |
| 2026-05-08 04:37 | -23.43225 | -46.46291 | 2463 ft | 6 kts | 78° |
| 2026-05-08 04:37 | -23.43243 | -46.46294 | 2463 ft | 3 kts | 259° |
| 2026-05-08 04:37 | -23.43244 | -46.46299 | 2463 ft | 0 kts | 252° |
| 2026-05-08 04:37 | -23.43244 | -46.46300 | 2463 ft | 0 kts | 252° |
| 2026-05-08 04:38 | -23.43303 | -46.46512 | 2463 ft | 61 kts | 253° |
| 2026-05-08 04:38 | -23.43470 | -46.47131 | 2507 ft | 99 kts | 253° |
| 2026-05-08 04:38 | -23.43678 | -46.47913 | 2637 ft | 115 kts | 254° |
| 2026-05-08 04:38 | -23.43899 | -46.48767 | 2878 ft | 117 kts | 254° |
| 2026-05-08 04:39 | -23.44141 | -46.49619 | 3131 ft | 120 kts | 257° |
| 2026-05-08 04:39 | -23.44389 | -46.50481 | 3397 ft | 119 kts | 267° |
| 2026-05-08 04:39 | -23.44619 | -46.51315 | 3697 ft | 112 kts | 269° |
| 2026-05-08 04:39 | -23.44832 | -46.52158 | 3891 ft | 118 kts | 266° |
| 2026-05-08 04:40 | -23.45056 | -46.53042 | 4093 ft | 126 kts | 262° |
| 2026-05-08 04:40 | -23.45305 | -46.54010 | 4245 ft | 138 kts | 258° |
| 2026-05-08 04:40 | -23.45572 | -46.55024 | 4483 ft | 139 kts | 255° |
| 2026-05-08 04:40 | -23.45848 | -46.56041 | 4726 ft | 140 kts | 261° |
| 2026-05-08 04:41 | -23.46114 | -46.56993 | 5139 ft | 122 kts | 264° |
| 2026-05-08 04:41 | -23.46339 | -46.57843 | 5451 ft | 114 kts | 266° |
| 2026-05-08 04:41 | -23.46549 | -46.58665 | 5691 ft | 114 kts | 266° |
| 2026-05-08 04:41 | -23.46765 | -46.59522 | 5842 ft | 120 kts | 265° |
| 2026-05-08 04:42 | -23.46992 | -46.60389 | 6065 ft | 119 kts | 265° |
| 2026-05-08 04:42 | -23.47217 | -46.61240 | 6372 ft | 115 kts | 265° |
| 2026-05-08 04:42 | -23.47434 | -46.62067 | 6680 ft | 114 kts | 265° |
| 2026-05-08 04:42 | -23.47654 | -46.62922 | 6934 ft | 118 kts | 265° |
| 2026-05-08 04:43 | -23.47886 | -46.63830 | 7025 ft | 136 kts | 264° |
| 2026-05-08 04:43 | -23.48142 | -46.64796 | 7357 ft | 128 kts | 264° |
| 2026-05-08 04:43 | -23.48388 | -46.65709 | 7709 ft | 123 kts | 264° |
| 2026-05-08 04:43 | -23.48618 | -46.66587 | 8068 ft | 119 kts | 265° |
| 2026-05-08 04:44 | -23.48822 | -46.67443 | 8397 ft | 116 kts | 267° |
| 2026-05-08 04:44 | -23.49003 | -46.68296 | 8715 ft | 116 kts | 268° |
| 2026-05-08 04:44 | -23.49179 | -46.69151 | 9002 ft | 118 kts | 268° |
| 2026-05-08 04:44 | -23.49364 | -46.70097 | 8966 ft | 138 kts | 267° |
| 2026-05-08 04:45 | -23.49578 | -46.71169 | 8921 ft | 151 kts | 266° |
| 2026-05-08 04:45 | -23.49815 | -46.72313 | 8908 ft | 158 kts | 265° |
| 2026-05-08 04:45 | -23.50063 | -46.73495 | 8903 ft | 162 kts | 265° |
| 2026-05-08 04:45 | -23.50324 | -46.74695 | 8903 ft | 164 kts | 264° |
| 2026-05-08 04:46 | -23.50591 | -46.75907 | 8901 ft | 166 kts | 264° |
| 2026-05-08 04:46 | -23.50862 | -46.77125 | 8900 ft | 166 kts | 264° |
| 2026-05-08 04:46 | -23.51133 | -46.78345 | 8901 ft | 166 kts | 264° |
| 2026-05-08 04:46 | -23.51406 | -46.79566 | 8901 ft | 167 kts | 264° |
| 2026-05-08 04:47 | -23.51678 | -46.80792 | 8901 ft | 167 kts | 264° |
| 2026-05-08 04:47 | -23.51952 | -46.82023 | 8902 ft | 167 kts | 264° |
| 2026-05-08 04:47 | -23.52224 | -46.83246 | 8902 ft | 167 kts | 264° |
| 2026-05-08 04:47 | -23.52497 | -46.84476 | 8903 ft | 167 kts | 264° |
| 2026-05-08 04:48 | -23.52770 | -46.85705 | 8903 ft | 167 kts | 264° |
| 2026-05-08 04:48 | -23.53041 | -46.86932 | 8903 ft | 167 kts | 264° |
| 2026-05-08 04:48 | -23.53313 | -46.88157 | 8903 ft | 167 kts | 264° |
| 2026-05-08 04:48 | -23.53585 | -46.89388 | 8901 ft | 167 kts | 264° |
| 2026-05-08 04:49 | -23.53857 | -46.90616 | 8901 ft | 167 kts | 264° |
| 2026-05-08 04:49 | -23.54126 | -46.91839 | 8901 ft | 167 kts | 264° |
| 2026-05-08 04:49 | -23.54331 | -46.93066 | 8901 ft | 163 kts | 272° |
| 2026-05-08 04:49 | -23.54352 | -46.94293 | 8903 ft | 161 kts | 278° |
| 2026-05-08 04:50 | -23.54303 | -46.95507 | 8902 ft | 160 kts | 280° |
| 2026-05-08 04:50 | -23.54227 | -46.96715 | 8901 ft | 160 kts | 281° |
| 2026-05-08 04:50 | -23.54139 | -46.97922 | 8901 ft | 160 kts | 281° |
| 2026-05-08 04:50 | -23.54045 | -46.99123 | 8901 ft | 160 kts | 281° |
| 2026-05-08 04:51 | -23.53947 | -47.00329 | 8902 ft | 160 kts | 282° |
| 2026-05-08 04:51 | -23.53847 | -47.01534 | 8903 ft | 160 kts | 282° |
| 2026-05-08 04:51 | -23.53746 | -47.02734 | 8903 ft | 160 kts | 282° |
| 2026-05-08 04:51 | -23.53644 | -47.03944 | 8903 ft | 160 kts | 282° |
| 2026-05-08 04:52 | -23.53543 | -47.05144 | 8903 ft | 160 kts | 282° |
| 2026-05-08 04:52 | -23.53440 | -47.06347 | 8903 ft | 160 kts | 282° |
| 2026-05-08 04:52 | -23.53338 | -47.07555 | 8902 ft | 160 kts | 282° |
| 2026-05-08 04:52 | -23.53235 | -47.08759 | 8902 ft | 160 kts | 282° |
| 2026-05-08 04:53 | -23.53132 | -47.09965 | 8902 ft | 160 kts | 282° |
| 2026-05-08 04:53 | -23.53029 | -47.11169 | 8902 ft | 160 kts | 282° |
| 2026-05-08 04:53 | -23.52926 | -47.12372 | 8900 ft | 160 kts | 282° |
| 2026-05-08 04:53 | -23.52823 | -47.13574 | 8899 ft | 160 kts | 282° |
| 2026-05-08 04:54 | -23.52720 | -47.14778 | 8899 ft | 160 kts | 282° |
| 2026-05-08 04:54 | -23.52617 | -47.15983 | 8899 ft | 160 kts | 282° |
| 2026-05-08 04:54 | -23.52513 | -47.17184 | 8899 ft | 160 kts | 282° |
| 2026-05-08 04:54 | -23.52410 | -47.18389 | 8899 ft | 160 kts | 282° |
| 2026-05-08 04:55 | -23.52306 | -47.19589 | 8900 ft | 160 kts | 282° |
| 2026-05-08 04:55 | -23.52203 | -47.20792 | 8899 ft | 160 kts | 282° |
| 2026-05-08 04:55 | -23.52099 | -47.21988 | 8899 ft | 160 kts | 282° |
| 2026-05-08 04:55 | -23.51995 | -47.23195 | 8900 ft | 160 kts | 282° |
| 2026-05-08 04:56 | -23.51891 | -47.24392 | 8900 ft | 160 kts | 282° |
| 2026-05-08 04:56 | -23.51779 | -47.25609 | 8960 ft | 168 kts | 282° |
| 2026-05-08 04:56 | -23.51663 | -47.26904 | 8866 ft | 170 kts | 281° |
| 2026-05-08 04:56 | -23.51560 | -47.28166 | 8892 ft | 165 kts | 281° |
| 2026-05-08 04:57 | -23.51458 | -47.29394 | 8897 ft | 163 kts | 282° |
| 2026-05-08 04:57 | -23.51352 | -47.30617 | 8899 ft | 161 kts | 282° |
| 2026-05-08 04:57 | -23.51247 | -47.31823 | 8899 ft | 160 kts | 282° |
| 2026-05-08 04:57 | -23.51141 | -47.33033 | 8900 ft | 160 kts | 282° |
| 2026-05-08 04:58 | -23.51034 | -47.34236 | 8900 ft | 160 kts | 282° |
| 2026-05-08 04:58 | -23.50928 | -47.35437 | 8898 ft | 160 kts | 282° |
| 2026-05-08 04:58 | -23.50819 | -47.36638 | 8898 ft | 159 kts | 283° |
| 2026-05-08 04:58 | -23.50606 | -47.37810 | 8899 ft | 157 kts | 290° |
| 2026-05-08 04:59 | -23.50311 | -47.38944 | 8899 ft | 156 kts | 292° |
| 2026-05-08 04:59 | -23.49988 | -47.40070 | 8898 ft | 156 kts | 293° |
| 2026-05-08 04:59 | -23.49654 | -47.41190 | 8898 ft | 156 kts | 294° |
| 2026-05-08 04:59 | -23.49312 | -47.42310 | 8898 ft | 156 kts | 294° |
| 2026-05-08 05:00 | -23.48968 | -47.43429 | 8898 ft | 156 kts | 294° |
| 2026-05-08 05:00 | -23.48622 | -47.44543 | 8898 ft | 156 kts | 294° |
| 2026-05-08 05:00 | -23.48274 | -47.45659 | 8898 ft | 156 kts | 294° |
| 2026-05-08 05:00 | -23.47927 | -47.46769 | 8899 ft | 156 kts | 294° |
| 2026-05-08 05:01 | -23.47578 | -47.47884 | 8899 ft | 156 kts | 294° |
| 2026-05-08 05:01 | -23.47229 | -47.48998 | 8899 ft | 156 kts | 294° |
| 2026-05-08 05:01 | -23.46881 | -47.50109 | 8899 ft | 156 kts | 294° |
| 2026-05-08 05:01 | -23.46531 | -47.51224 | 8899 ft | 156 kts | 294° |
| 2026-05-08 05:02 | -23.46182 | -47.52337 | 8899 ft | 156 kts | 294° |
| 2026-05-08 05:02 | -23.45833 | -47.53449 | 8899 ft | 156 kts | 294° |
| 2026-05-08 05:02 | -23.45485 | -47.54559 | 8899 ft | 156 kts | 294° |
| 2026-05-08 05:02 | -23.45135 | -47.55673 | 8899 ft | 156 kts | 294° |
| 2026-05-08 05:03 | -23.44785 | -47.56785 | 8899 ft | 156 kts | 294° |
| 2026-05-08 05:03 | -23.44436 | -47.57897 | 8899 ft | 156 kts | 294° |
| 2026-05-08 05:03 | -23.44085 | -47.59014 | 8898 ft | 156 kts | 294° |
| 2026-05-08 05:03 | -23.43737 | -47.60125 | 8900 ft | 156 kts | 294° |
| 2026-05-08 05:04 | -23.43385 | -47.61239 | 8896 ft | 156 kts | 294° |
| 2026-05-08 05:04 | -23.43036 | -47.62348 | 8898 ft | 156 kts | 294° |
| 2026-05-08 05:04 | -23.42685 | -47.63462 | 8898 ft | 156 kts | 294° |
| 2026-05-08 05:04 | -23.42333 | -47.64581 | 8899 ft | 156 kts | 294° |
| 2026-05-08 05:05 | -23.41981 | -47.65695 | 8898 ft | 156 kts | 294° |
| 2026-05-08 05:05 | -23.41630 | -47.66812 | 8898 ft | 156 kts | 294° |
| 2026-05-08 05:05 | -23.41280 | -47.67925 | 8897 ft | 156 kts | 294° |
| 2026-05-08 05:05 | -23.40930 | -47.69038 | 8897 ft | 156 kts | 294° |
| 2026-05-08 05:06 | -23.40580 | -47.70148 | 8899 ft | 156 kts | 294° |
| 2026-05-08 05:06 | -23.40228 | -47.71265 | 8900 ft | 156 kts | 294° |
| 2026-05-08 05:06 | -23.39877 | -47.72377 | 8898 ft | 156 kts | 294° |
| 2026-05-08 05:06 | -23.39527 | -47.73486 | 8898 ft | 156 kts | 294° |
| 2026-05-08 05:07 | -23.39175 | -47.74600 | 8899 ft | 156 kts | 294° |
| 2026-05-08 05:07 | -23.38824 | -47.75712 | 8899 ft | 156 kts | 294° |
| 2026-05-08 05:07 | -23.38472 | -47.76825 | 8899 ft | 156 kts | 294° |
| 2026-05-08 05:07 | -23.38121 | -47.77937 | 8899 ft | 156 kts | 294° |
| 2026-05-08 05:08 | -23.37770 | -47.79047 | 8898 ft | 156 kts | 294° |
| 2026-05-08 05:08 | -23.37419 | -47.80158 | 8898 ft | 156 kts | 294° |
| 2026-05-08 05:08 | -23.37068 | -47.81270 | 8898 ft | 156 kts | 294° |
| 2026-05-08 05:08 | -23.36717 | -47.82377 | 8897 ft | 155 kts | 293° |
| 2026-05-08 05:09 | -23.36367 | -47.83484 | 8896 ft | 155 kts | 293° |
| 2026-05-08 05:09 | -23.36018 | -47.84587 | 8896 ft | 154 kts | 293° |
| 2026-05-08 05:09 | -23.35670 | -47.85687 | 8896 ft | 154 kts | 293° |
| 2026-05-08 05:09 | -23.35322 | -47.86787 | 8896 ft | 154 kts | 293° |
| 2026-05-08 05:10 | -23.34973 | -47.87888 | 8896 ft | 154 kts | 293° |
| 2026-05-08 05:10 | -23.34279 | -47.90080 | 8897 ft | 154 kts | 293° |
| 2026-05-08 05:10 | -23.33930 | -47.91181 | 8897 ft | 154 kts | 293° |
| 2026-05-08 05:11 | -23.33581 | -47.92280 | 8897 ft | 154 kts | 293° |
| 2026-05-08 05:11 | -23.33235 | -47.93373 | 8897 ft | 154 kts | 293° |
| 2026-05-08 05:11 | -23.32886 | -47.94473 | 8897 ft | 154 kts | 294° |
| 2026-05-08 05:11 | -23.32537 | -47.95574 | 8897 ft | 154 kts | 294° |
| 2026-05-08 05:12 | -23.32189 | -47.96668 | 8897 ft | 154 kts | 294° |
| 2026-05-08 05:12 | -23.31840 | -47.97767 | 8897 ft | 154 kts | 294° |
| 2026-05-08 05:12 | -23.31490 | -47.98871 | 8896 ft | 154 kts | 294° |
| 2026-05-08 05:12 | -23.31142 | -47.99966 | 8896 ft | 154 kts | 294° |
| 2026-05-08 05:13 | -23.30792 | -48.01070 | 8895 ft | 154 kts | 294° |
| 2026-05-08 05:13 | -23.30442 | -48.02170 | 8894 ft | 155 kts | 294° |
| 2026-05-08 05:13 | -23.30092 | -48.03273 | 8893 ft | 155 kts | 294° |
| 2026-05-08 05:13 | -23.29740 | -48.04379 | 8892 ft | 155 kts | 294° |
| 2026-05-08 05:14 | -23.29388 | -48.05483 | 8887 ft | 154 kts | 293° |
| 2026-05-08 05:14 | -23.29039 | -48.06581 | 8882 ft | 154 kts | 293° |
| 2026-05-08 05:14 | -23.28689 | -48.07682 | 8883 ft | 154 kts | 293° |
| 2026-05-08 05:14 | -23.28339 | -48.08772 | 8936 ft | 154 kts | 295° |
| 2026-05-08 05:15 | -23.27980 | -48.09906 | 8850 ft | 162 kts | 293° |
| 2026-05-08 05:15 | -23.27623 | -48.11038 | 8879 ft | 157 kts | 294° |
| 2026-05-08 05:15 | -23.27268 | -48.12156 | 8882 ft | 156 kts | 294° |
| 2026-05-08 05:15 | -23.26916 | -48.13259 | 8882 ft | 155 kts | 294° |
| 2026-05-08 05:16 | -23.26563 | -48.14365 | 8882 ft | 155 kts | 294° |
| 2026-05-08 05:16 | -23.26211 | -48.15468 | 8882 ft | 154 kts | 294° |
| 2026-05-08 05:16 | -23.25860 | -48.16567 | 8882 ft | 154 kts | 294° |
| 2026-05-08 05:16 | -23.25508 | -48.17669 | 8883 ft | 154 kts | 294° |
| 2026-05-08 05:17 | -23.25156 | -48.18772 | 8883 ft | 154 kts | 294° |
| 2026-05-08 05:17 | -23.24804 | -48.19873 | 8883 ft | 154 kts | 294° |
| 2026-05-08 05:17 | -23.24454 | -48.20970 | 8883 ft | 154 kts | 294° |
| 2026-05-08 05:17 | -23.24102 | -48.22072 | 8883 ft | 154 kts | 294° |
| 2026-05-08 05:18 | -23.23750 | -48.23171 | 8883 ft | 154 kts | 294° |
| 2026-05-08 05:18 | -23.23398 | -48.24275 | 8883 ft | 154 kts | 294° |
| 2026-05-08 05:18 | -23.23046 | -48.25377 | 8883 ft | 154 kts | 294° |
| 2026-05-08 05:18 | -23.22695 | -48.26475 | 8884 ft | 154 kts | 294° |
| 2026-05-08 05:19 | -23.22343 | -48.27575 | 8884 ft | 154 kts | 294° |
| 2026-05-08 05:19 | -23.21989 | -48.28678 | 8883 ft | 154 kts | 293° |
| 2026-05-08 05:19 | -23.21639 | -48.29773 | 8878 ft | 154 kts | 293° |
| 2026-05-08 05:19 | -23.21288 | -48.30869 | 8877 ft | 153 kts | 293° |
| 2026-05-08 05:20 | -23.20940 | -48.31958 | 8877 ft | 153 kts | 293° |
| 2026-05-08 05:20 | -23.20590 | -48.33052 | 8876 ft | 153 kts | 293° |
| 2026-05-08 05:20 | -23.20241 | -48.34139 | 8876 ft | 153 kts | 294° |
| 2026-05-08 05:20 | -23.19890 | -48.35235 | 8873 ft | 153 kts | 294° |
| 2026-05-08 05:21 | -23.19541 | -48.36326 | 8873 ft | 153 kts | 294° |
| 2026-05-08 05:21 | -23.19191 | -48.37417 | 8873 ft | 153 kts | 294° |
| 2026-05-08 05:21 | -23.18842 | -48.38506 | 8873 ft | 153 kts | 293° |
| 2026-05-08 05:21 | -23.18493 | -48.39593 | 8874 ft | 153 kts | 294° |
| 2026-05-08 05:22 | -23.18143 | -48.40683 | 8873 ft | 153 kts | 294° |
| 2026-05-08 05:22 | -23.17794 | -48.41773 | 8874 ft | 153 kts | 294° |
| 2026-05-08 05:22 | -23.17443 | -48.42867 | 8874 ft | 153 kts | 294° |
| 2026-05-08 05:22 | -23.17092 | -48.43960 | 8874 ft | 153 kts | 294° |
| 2026-05-08 05:23 | -23.16744 | -48.45043 | 8874 ft | 153 kts | 294° |
| 2026-05-08 05:23 | -23.16394 | -48.46132 | 8876 ft | 153 kts | 294° |
| 2026-05-08 05:23 | -23.16044 | -48.47221 | 8896 ft | 152 kts | 294° |
| 2026-05-08 05:23 | -23.15697 | -48.48302 | 8899 ft | 152 kts | 294° |
| 2026-05-08 05:24 | -23.15348 | -48.49385 | 8899 ft | 153 kts | 294° |
| 2026-05-08 05:24 | -23.14997 | -48.50477 | 8898 ft | 153 kts | 294° |
| 2026-05-08 05:24 | -23.14647 | -48.51565 | 8898 ft | 153 kts | 294° |
| 2026-05-08 05:24 | -23.14298 | -48.52652 | 8894 ft | 153 kts | 294° |
| 2026-05-08 05:25 | -23.13946 | -48.53744 | 8891 ft | 153 kts | 294° |
| 2026-05-08 05:25 | -23.13595 | -48.54834 | 8892 ft | 153 kts | 294° |
| 2026-05-08 05:25 | -23.13296 | -48.55944 | 8890 ft | 156 kts | 285° |
| 2026-05-08 05:25 | -23.13253 | -48.57129 | 8882 ft | 159 kts | 273° |
| 2026-05-08 05:26 | -23.13453 | -48.58335 | 8743 ft | 167 kts | 262° |
| 2026-05-08 05:26 | -23.13877 | -48.59542 | 8569 ft | 175 kts | 252° |
| 2026-05-08 05:26 | -23.14110 | -48.60025 | 8497 ft | 178 kts | 249° |
| 2026-05-08 05:26 | -23.14423 | -48.60590 | 8426 ft | 180 kts | 245° |
| 2026-05-08 05:27 | -23.15197 | -48.61669 | 8316 ft | 182 kts | 235° |
| 2026-05-08 05:27 | -23.16151 | -48.62575 | 8190 ft | 184 kts | 225° |
| 2026-05-08 05:27 | -23.17166 | -48.63401 | 8082 ft | 181 kts | 226° |
| 2026-05-08 05:27 | -23.18150 | -48.64249 | 7908 ft | 183 kts | 227° |
| 2026-05-08 05:28 | -23.19164 | -48.65131 | 7599 ft | 190 kts | 227° |
| 2026-05-08 05:28 | -23.20202 | -48.66052 | 7220 ft | 196 kts | 227° |
| 2026-05-08 05:28 | -23.21262 | -48.67017 | 6771 ft | 202 kts | 227° |
| 2026-05-08 05:28 | -23.22334 | -48.68004 | 6347 ft | 203 kts | 228° |
| 2026-05-08 05:29 | -23.23396 | -48.68996 | 5980 ft | 199 kts | 229° |
| 2026-05-08 05:29 | -23.24395 | -48.70006 | 5638 ft | 194 kts | 233° |
| 2026-05-08 05:29 | -23.25277 | -48.71091 | 5274 ft | 190 kts | 239° |
| 2026-05-08 05:29 | -23.26056 | -48.72228 | 4852 ft | 188 kts | 242° |
| 2026-05-08 05:30 | -23.26783 | -48.73414 | 4466 ft | 191 kts | 243° |
| 2026-05-08 05:30 | -23.27344 | -48.74727 | 4013 ft | 193 kts | 252° |
| 2026-05-08 05:30 | -23.27637 | -48.76134 | 3489 ft | 182 kts | 268° |
| 2026-05-08 05:30 | -23.27714 | -48.77393 | 3022 ft | 152 kts | 277° |
| 2026-05-08 05:31 | -23.27800 | -48.78499 | 2798 ft | 145 kts | 271° |
| 2026-05-08 05:31 | -23.27990 | -48.79562 | 2686 ft | 142 kts | 261° |
| 2026-05-08 05:31 | -23.28214 | -48.80568 | 2688 ft | 133 kts | 262° |
| 2026-05-08 05:31 | -23.28420 | -48.81534 | 2697 ft | 127 kts | 263° |
| 2026-05-08 05:32 | -23.28617 | -48.82455 | 2726 ft | 124 kts | 264° |
| 2026-05-08 05:32 | -23.28746 | -48.83360 | 2751 ft | 117 kts | 279° |
| 2026-05-08 05:32 | -23.28515 | -48.84140 | 2782 ft | 104 kts | 312° |
| 2026-05-08 05:32 | -23.27926 | -48.84523 | 2779 ft | 101 kts | 350° |
| 2026-05-08 05:33 | -23.27240 | -48.84331 | 2671 ft | 106 kts | 34° |
| 2026-05-08 05:33 | -23.26907 | -48.83625 | 2477 ft | 114 kts | 87° |
| 2026-05-08 05:33 | -23.27293 | -48.82904 | 2263 ft | 122 kts | 153° |
| 2026-05-08 05:33 | -23.28098 | -48.82798 | 2226 ft | 107 kts | 170° |
| 2026-05-08 05:34 | -23.28755 | -48.82527 | 2133 ft | 97 kts | 147° |
| 2026-05-08 05:34 | -23.29118 | -48.81982 | 1980 ft | 82 kts | 110° |
| 2026-05-08 05:34 | -23.29260 | -48.81535 | 1956 ft | 34 kts | 109° |
| 2026-05-08 05:34 | -23.29278 | -48.81480 | 1956 ft | 0 kts | 109° |
| 2026-05-08 05:35 | -23.29279 | -48.81478 | 1956 ft | 1 kts | 125° |
| 2026-05-08 05:36 | -23.29287 | -48.81480 | 1956 ft | 2 kts | 242° |
| 2026-05-08 05:36 | -23.29287 | -48.81497 | 1956 ft | 5 kts | 277° |
| 2026-05-08 05:36 | -23.29301 | -48.81515 | 1956 ft | 3 kts | 196° |
| 2026-05-08 05:36 | -23.29332 | -48.81525 | 1956 ft | 6 kts | 196° |
| 2026-05-08 05:37 | -23.29342 | -48.81539 | 1956 ft | 0 kts | 279° |